Latest Coastal Weather Observations for Cape Sorell

IDT60701

Issued at 5:22 am EST Sunday 28 May 2017 (issued every 10 minutes, with the page automatically refreshed every 10 minutes)

About coastal observations | Map of coastal stations | Coastal observations for TAS | Marine services | Other Formats
Station Details ID: 097000 Name: CAPE SORELL Lat: -42.20 Lon: 145.17 Height: 19.3 m
Data from the previous 72 hours. | See also: Recent months at Cape Sorell
Date/Time
EST
Temp
°C
Wind Pressure Rain since
9am
mm
Weather Cloud Vis
km
Sea
Height
m
Swell
Dir  Spd
kts
Gust
kts
hPa Trend Height
m
Period
s
Dir
28/05:00am 11.4 WNW 14 18 1000.0 - 26.8 - - - - - - -
28/04:30am 11.3 WNW 13 17 999.9 - 26.8 - - - - - - -
28/04:00am 11.7 N 8 11 999.9 - 26.6 - - - - - - -
28/03:30am 11.4 NNW 10 14 1000.2 - 26.4 - - - - - - -
28/03:00am 10.8 NNW 13 19 1000.6 - 26.4 Rain - - - - - -
28/02:30am 10.6 NNW 11 19 1000.7 - 25.2 - - - - - - -
28/02:00am 10.8 N 13 16 1000.5 - 23.2 - - - - - - -
28/01:30am 11.1 N 16 19 1000.8 - 22.8 - - - - - - -
28/01:07am 11.9 N 21 32 1001.3 - 21.0 - - - - - - -
28/01:00am 12.1 N 26 32 1000.9 - 20.8 - - - - - - -
28/12:30am 12.5 N 25 31 1001.0 - 20.0 - - - - - - -
28/12:00am 12.5 N 25 29 1001.2 - 20.0 - - - - - - -
 
Date/Time
EST
Temp
°C
Wind Pressure Rain since
9am
mm
Weather Cloud Vis
km
Sea
Height
m
Swell
Dir  Spd
kts
Gust
kts
hPa Trend Height
m
Period
s
Dir
27/11:30pm 12.2 N 19 22 1001.5 - 20.0 - - - - - - -
27/11:00pm 12.2 N 22 28 1001.9 - 20.0 - - - - - - -
27/10:30pm 11.8 N 22 27 1002.3 - 19.8 - - - - - - -
27/10:00pm 11.7 N 18 24 1002.9 - 18.6 - - - - - - -
27/09:30pm 11.8 N 21 25 1003.2 - 17.0 - - - - - - -
27/09:00pm 11.7 N 23 27 1003.3 - 15.8 Rain - - - - - -
27/08:30pm 11.7 N 18 23 1003.7 - 14.0 - - - - - - -
27/08:00pm 11.9 N 20 25 1003.9 - 12.2 - - - - - - -
27/07:30pm 12.0 NNW 19 26 1004.1 - 9.8 - - - - - - -
27/07:00pm 12.0 NNW 19 24 1004.2 - 8.0 - - - - - - -
27/06:30pm 11.9 NNW 20 28 1004.4 - 4.2 - - - - - - -
27/06:00pm 12.3 NNW 21 30 1004.6 - 1.8 Rain - - - - - -
27/05:55pm 13.0 NNW 23 31 1004.6 - 1.0 - - - - - - -
27/05:54pm 13.6 N 23 31 1004.5 - 1.0 - - - - - - -
27/05:30pm 14.2 N 22 26 1003.9 - 0.4 - - - - - - -
27/05:00pm 15.0 N 27 33 1004.0 - 0.0 - - - - - - -
27/04:30pm 15.1 N 28 36 1004.2 - 0.0 - - - - - - -
27/04:00pm 14.8 N 28 35 1004.5 - 0.0 - - - - - - -
27/03:30pm 15.0 N 26 31 1004.6 - 0.0 - - - - - - -
27/03:00pm 15.2 N 26 33 1004.9 - 0.0 - - - - - - -
27/02:30pm 15.1 N 27 35 1005.1 - 0.0 - - - - - - -
27/02:00pm 15.6 N 24 29 1005.5 - 0.0 - - - - - - -
27/01:30pm 15.8 N 24 28 1005.8 - 0.0 - - - - - - -
27/01:00pm 16.6 N 24 28 1006.1 - 0.0 - - - - - - -
27/12:30pm 15.8 N 23 27 1006.8 - 0.0 - - - - - - -
27/12:00pm 15.9 N 22 27 1007.5 - 0.0 - - - - - - -
27/11:30am 15.9 N 23 27 1008.2 - 0.0 - - - - - - -
27/11:00am 15.5 N 25 31 1008.6 - 0.0 - - - - - - -
27/10:30am 15.3 N 27 33 1008.8 - 0.0 - - - - - - -
27/10:00am 15.1 N 26 33 1009.0 - 0.0 - - - - - - -
27/09:30am 14.3 NNE 25 30 1009.3 - 0.0 - - - - - - -
27/09:00am 14.3 N 26 34 1009.5 - 0.0 - - - - - - -
27/08:54am 14.1 NNE 23 34 1009.5 - 0.0 - - - - - - -
27/08:30am 13.5 NNE 24 29 1009.7 - 0.0 - - - - - - -
27/08:00am 13.5 NNE 26 31 1009.7 - 0.0 - - - - - - -
27/07:30am 13.4 NNE 25 30 1010.2 - 0.0 - - - - - - -
27/07:00am 13.2 NNE 26 31 1010.2 - 0.0 - - - - - - -
27/06:30am 12.9 NNE 24 29 1010.6 - 0.0 - - - - - - -
27/06:00am 12.7 NNE 22 28 1010.9 - 0.0 - - - - - - -
27/05:30am 12.5 NNE 25 31 1011.1 - 0.0 - - - - - - -
27/05:00am 12.2 NNE 21 27 1011.7 - 0.0 - - - - - - -
27/04:30am 12.6 NNE 23 29 1012.1 - 0.0 - - - - - - -
27/04:00am 11.9 NNE 20 25 1012.8 - 0.0 - - - - - - -
27/03:30am 12.6 N 26 32 1013.1 - 0.0 - - - - - - -
27/03:00am 12.4 NNE 24 29 1013.5 - 0.0 - - - - - - -
27/02:30am 12.5 NNE 25 32 1013.5 - 0.0 - - - - - - -
27/02:00am 12.9 N 28 34 1013.5 - 0.0 - - - - - - -
27/01:30am 12.9 N 28 36 1013.4 - 0.0 - - - - - - -
27/01:26am 12.8 N 26 36 1013.5 - 0.0 - - - - - - -
27/01:00am 12.3 NNE 23 28 1013.9 - 0.0 - - - - - - -
27/12:30am 12.2 NNE 24 29 1014.2 - 0.0 - - - - - - -
27/12:00am 12.5 NNE 21 26 1014.7 - 0.0 - - - - - - -
 
Date/Time
EST
Temp
°C
Wind Pressure Rain since
9am
mm
Weather Cloud Vis
km
Sea
Height
m
Swell
Dir  Spd
kts
Gust
kts
hPa Trend Height
m
Period
s
Dir
26/11:30pm 12.3 NNE 22 27 1015.1 - 0.0 - - - - - - -
26/11:00pm 12.3 NNE 20 24 1015.5 - 0.0 - - - - - - -
26/10:30pm 12.3 NNE 21 25 1015.7 - 0.0 - - - - - - -
26/10:00pm 12.5 NNE 20 23 1016.1 - 0.0 - - - - - - -
26/09:30pm 13.0 N 21 28 1016.3 - 0.0 - - - - - - -
26/09:00pm 12.4 NNE 16 19 1016.6 - 0.0 - - - - - - -
26/08:30pm 12.5 NNE 17 20 1016.7 - 0.0 - - - - - - -
26/08:00pm 12.4 NNE 16 19 1016.7 - 0.0 - - - - - - -
26/07:30pm 12.6 NNE 15 18 1016.7 - 0.0 - - - - - - -
26/07:00pm 12.5 NNE 14 17 1016.9 - 0.0 - - - - - - -
26/06:30pm 12.9 N 12 14 1017.1 - 0.0 - - - - - - -
26/06:00pm 12.5 NNW 12 17 1017.1 - 0.0 - - - - - - -
26/05:30pm 12.5 NNE 10 13 1017.2 - 0.0 - - - - - - -
26/05:00pm 12.0 NNE 8 10 1017.0 - 0.0 - - - - - - -
26/04:30pm 12.2 NNW 10 15 1017.3 - 0.0 - - - - - - -
26/04:00pm 12.2 N 9 11 1017.4 - 0.0 - - - - - - -
26/03:30pm 12.6 N 7 8 1017.6 - 0.0 - - - - - - -
26/03:00pm 12.8 N 7 9 1017.7 - 0.0 - - - - - - -
26/02:30pm 13.1 N 5 7 1017.9 - 0.0 - - - - - - -
26/02:00pm 13.5 NW 5 8 1018.3 - 0.0 - - - - - - -
26/01:30pm 12.5 NW 14 19 1018.5 - 0.0 - - - - - - -
26/01:00pm 13.2 WNW 10 14 1018.6 - 0.0 - - - - - - -
26/12:30pm 13.3 WNW 10 13 1018.7 - 0.0 - - - - - - -
26/12:00pm 14.3 WNW 11 19 1018.8 - 0.0 - - - - - - -
26/11:30am 13.6 WNW 11 15 1019.3 - 0.0 - - - - - - -
26/11:00am 12.8 WNW 12 15 1019.4 - 0.0 - - - - - - -
26/10:30am 13.9 NW 10 15 1019.4 - 0.0 - - - - - - -
26/10:00am 12.5 NW 9 13 1019.4 - 0.0 - - - - - - -
26/09:30am 12.2 WNW 9 11 1019.1 - 0.0 - - - - - - -
26/09:00am 11.3 WSW 8 12 1019.0 - 2.2 Rain - - - - - -
26/08:30am 12.0 W 9 14 1018.9 - 2.0 - - - - - - -
26/08:00am 11.3 WSW 10 13 1018.4 - 2.0 - - - - - - -
26/07:30am 11.2 WSW 12 15 1018.0 - 2.0 - - - - - - -
26/07:00am 10.9 WSW 12 18 1017.7 - 2.0 - - - - - - -
26/06:30am 12.0 W 11 15 1017.4 - 2.0 - - - - - - -
26/06:00am 11.7 WSW 14 17 1017.2 - 2.0 - - - - - - -
26/05:30am 11.7 WSW 15 19 1016.8 - 2.0 - - - - - - -
26/05:00am 11.8 WSW 16 20 1016.4 - 2.0 - - - - - - -
26/04:30am 11.8 WSW 17 21 1016.1 - 2.0 - - - - - - -
26/04:00am 11.6 W 14 21 1015.9 - 2.0 - - - - - - -
26/03:30am 11.8 WSW 16 21 1015.8 - 2.0 - - - - - - -
26/03:00am 12.0 WSW 14 23 1015.6 - 2.0 - - - - - - -
26/02:30am 12.0 WSW 16 19 1015.4 - 2.0 - - - - - - -
26/02:00am 11.9 WSW 15 19 1015.3 - 2.0 - - - - - - -
26/01:30am 12.1 WSW 16 20 1015.3 - 2.0 - - - - - - -
26/01:00am 11.9 WSW 15 19 1015.2 - 2.0 - - - - - - -
26/12:30am 12.1 WSW 18 22 1014.9 - 2.0 - - - - - - -
26/12:00am 12.2 WSW 17 20 1014.9 - 2.0 - - - - - - -
 
Date/Time
EST
Temp
°C
Wind Pressure Rain since
9am
mm
Weather Cloud Vis
km
Sea
Height
m
Swell
Dir  Spd
kts
Gust
kts
hPa Trend Height
m
Period
s
Dir
25/11:30pm 11.9 WSW 19 24 1014.7 - 2.0 - - - - - - -
25/11:00pm 12.3 WSW 18 21 1014.5 - 2.0 - - - - - - -
25/10:30pm 12.1 WSW 21 25 1014.4 - 2.0 - - - - - - -
25/10:00pm 12.2 WSW 17 22 1014.1 - 2.0 - - - - - - -
25/09:30pm 12.0 WSW 17 20 1013.8 - 2.0 - - - - - - -
25/09:00pm 12.4 W 11 16 1013.8 - 2.0 - - - - - - -
25/08:30pm 12.3 W 13 16 1013.5 - 2.0 - - - - - - -
25/08:00pm 12.5 W 14 19 1013.3 - 2.0 - - - - - - -
25/07:30pm 12.5 W 12 16 1013.2 - 2.0 - - - - - - -
25/07:00pm 12.5 W 12 15 1013.0 - 1.8 - - - - - - -
25/06:30pm 12.1 WNW 11 14 1012.6 - 1.8 - - - - - - -
25/06:00pm 12.2 W 8 12 1012.0 - 1.8 - - - - - - -
25/05:30pm 12.2 WSW 12 17 1011.6 - 1.8 - - - - - - -
25/05:00pm 12.2 WSW 14 18 1011.2 - 1.8 - - - - - - -
25/04:30pm 12.4 W 18 24 1010.9 - 1.6 - - - - - - -
25/04:00pm 12.4 WNW 19 26 1010.4 - 1.6 - - - - - - -
25/03:59pm 12.7 WNW 19 26 1010.3 - 1.6 - - - - - - -
25/03:45pm 13.4 NNW 20 31 1010.3 - 1.4 - - - - - - -
25/03:39pm 13.6 NNW 17 28 1010.0 - 1.4 - - - - - - -
25/03:30pm 13.6 NNW 18 24 1010.1 - 1.4 - - - - - - -
25/03:00pm 13.3 NNW 18 23 1010.4 - 1.4 Recent precip. - - - - - -
25/02:30pm 13.1 NNW 18 21 1011.0 - 1.4 - - - - - - -
25/02:00pm 14.0 NNW 18 27 1011.0 - 1.2 - - - - - - -
25/01:35pm 13.9 NNW 19 29 1011.1 - 1.2 - - - - - - -
25/01:30pm 13.8 NNW 20 29 1011.2 - 1.2 - - - - - - -
25/01:00pm 12.9 NNW 17 23 1011.6 - 1.2 - - - - - - -
25/12:30pm 13.2 NNW 21 30 1012.0 - 0.8 - - - - - - -
25/12:00pm 14.6 NNW 19 25 1012.1 - 0.2 - - - - - - -
25/11:30am 13.8 NNW 20 26 1012.4 - 0.2 - - - - - - -
25/11:00am 13.1 NW 20 26 1012.8 - 0.2 - - - - - - -
25/10:30am 13.2 NW 18 23 1012.9 - 0.2 - - - - - - -
25/10:00am 13.3 NNW 17 24 1012.9 - 0.2 - - - - - - -
25/09:30am 13.0 NNW 16 21 1013.1 - 0.2 - - - - - - -
25/09:00am 13.1 NNW 18 25 1013.3 - 2.6 Recent precip. - - - - - -
25/08:43am 12.9 NNW 15 25 1013.4 - 2.6 - - - - - - -
25/08:30am 13.5 NNW 15 21 1013.4 - 2.4 - - - - - - -
25/08:00am 13.5 NNW 15 19 1013.4 - 2.4 - - - - - - -
25/07:30am 13.2 NNW 14 19 1013.3 - 2.4 - - - - - - -
25/07:00am 13.1 NNW 14 18 1013.3 - 2.4 - - - - - - -
25/06:30am 12.9 NNW 11 15 1013.3 - 2.4 - - - - - - -
25/06:00am 12.8 NNW 13 17 1013.3 - 2.4 Recent precip. - - - - - -
25/05:30am 12.6 WNW 12 17 1013.4 - 2.4 - - - - - - -

Other Formats:

Comma delimited format used in spreadsheet applications
http://www.bom.gov.au/fwo/IDT60701/IDT60701.94974.axf

JavaScript Object Notation format (JSON) in row-major order
http://www.bom.gov.au/fwo/IDT60701/IDT60701.94974.json